Time;durP1;ratioP1;P1;durP2;ratioP2;P2;SDS_P1;SDS_P2;PMS_P1;PMS_P2;Temp;Humidity;BMP_temperature;BMP_pressure;BME280_temperature;BME280_humidity;BME280_pressure;Samples;Min_cycle;Max_cycle;Signal;HPM_P1;HPM_P2
2021/12/28 00:01:49;;;;;;;6.67;4.13;;;-5.10;99.90;;;;;;4987805;28;20325;-91
2021/12/28 00:04:21;;;;;;;8.17;3.43;;;-5.30;99.90;;;;;;4993162;28;20209;-91
2021/12/28 00:06:52;;;;;;;4.43;3.17;;;-5.30;99.90;;;;;;4986821;28;20235;-90
2021/12/28 00:14:35;;;;;;;6.63;3.40;;;-5.50;99.90;;;;;;4979234;28;20200;-91
2021/12/28 00:19:56;;;;;;;5.57;3.17;;;-5.40;99.90;;;;;;4977478;28;20303;-90
2021/12/28 00:22:27;;;;;;;4.63;2.90;;;-5.40;99.90;;;;;;4978921;28;20242;-90
2021/12/28 00:27:34;;;;;;;7.53;3.20;;;-5.20;99.90;;;;;;5162488;23;20247;-92
2021/12/28 00:30:07;;;;;;;6.70;3.60;;;-5.30;99.90;;;;;;5005855;28;20263;-90
2021/12/28 00:32:41;;;;;;;4.23;3.10;;;-5.40;99.90;;;;;;5011439;28;20297;-89
2021/12/28 00:35:13;;;;;;;7.13;3.67;;;-5.40;99.90;;;;;;5015859;28;20218;-91
2021/12/28 00:37:45;;;;;;;6.47;3.40;;;-5.50;99.90;;;;;;5014199;28;20232;-91
2021/12/28 00:40:18;;;;;;;5.83;2.83;;;-5.50;99.90;;;;;;5012314;28;20244;-91
2021/12/28 00:42:50;;;;;;;4.90;2.50;;;-5.40;99.90;;;;;;5008624;28;20214;-90
2021/12/28 00:45:22;;;;;;;6.90;2.97;;;-5.50;99.90;;;;;;5012460;28;20237;-91
2021/12/28 00:47:56;;;;;;;7.73;3.33;;;-5.50;99.90;;;;;;5012432;28;20228;-88
2021/12/28 00:50:29;;;;;;;4.83;3.07;;;-5.50;99.90;;;;;;5008764;28;20206;-88
2021/12/28 00:53:00;;;;;;;5.47;3.40;;;-5.50;99.90;;;;;;5015063;28;20193;-88
2021/12/28 00:55:32;;;;;;;4.33;2.80;;;-5.50;99.90;;;;;;5015738;28;20220;-91
2021/12/28 00:58:04;;;;;;;4.37;2.80;;;-5.40;99.90;;;;;;5003467;28;20232;-91
2021/12/28 01:00:37;;;;;;;4.63;2.50;;;-5.40;99.90;;;;;;5019180;28;20217;-90
2021/12/28 01:03:16;;;;;;;5.10;3.00;;;-5.20;99.90;;;;;;5016797;28;20292;-91
2021/12/28 01:05:48;;;;;;;5.83;3.47;;;-5.20;99.90;;;;;;5013937;28;20194;-89
2021/12/28 01:13:53;;;;;;;8.80;2.87;;;-5.30;99.90;;;;;;5022530;28;20284;-91
2021/12/28 01:16:25;;;;;;;5.90;2.90;;;-5.30;99.90;;;;;;5029514;28;20217;-91
2021/12/28 01:18:58;;;;;;;7.30;3.30;;;-5.30;99.90;;;;;;5027314;28;20238;-91
2021/12/28 01:21:32;;;;;;;5.83;3.40;;;-5.30;99.90;;;;;;5023796;28;20237;-90
2021/12/28 01:24:04;;;;;;;6.33;2.90;;;-5.30;99.90;;;;;;5023874;28;20280;-91
2021/12/28 01:26:35;;;;;;;5.57;3.17;;;-5.30;99.90;;;;;;5025089;28;20220;-91
2021/12/28 01:29:07;;;;;;;4.27;2.97;;;-5.30;99.90;;;;;;5025133;28;20246;-91
2021/12/28 01:31:40;;;;;;;6.57;3.43;;;-5.40;99.90;;;;;;5011139;28;20638;-91
2021/12/28 01:34:12;;;;;;;5.93;3.40;;;-5.30;99.90;;;;;;5003875;28;20213;-90
2021/12/28 01:36:44;;;;;;;5.57;2.90;;;-5.20;99.90;;;;;;5002181;28;20623;-91
2021/12/28 01:39:16;;;;;;;5.70;3.07;;;-5.20;99.90;;;;;;4999785;28;20238;-91
2021/12/28 01:41:48;;;;;;;6.60;2.90;;;-5.10;99.90;;;;;;5002043;28;20211;-91
2021/12/28 01:44:20;;;;;;;4.17;2.60;;;-5.10;99.90;;;;;;5019319;28;20260;-90
2021/12/28 01:46:52;;;;;;;6.57;2.70;;;-5.10;99.90;;;;;;5020921;28;20201;-90
2021/12/28 01:49:30;;;;;;;4.97;2.93;;;-5.10;99.90;;;;;;5023584;28;20235;-91
2021/12/28 01:52:04;;;;;;;3.33;2.40;;;-5.10;99.90;;;;;;5022163;28;20197;-91
2021/12/28 01:54:39;;;;;;;6.20;2.63;;;-5.00;99.90;;;;;;5026504;28;20308;-91
2021/12/28 01:57:11;;;;;;;5.70;3.07;;;-5.00;99.90;;;;;;5021813;28;20217;-91
2021/12/28 01:59:42;;;;;;;4.97;3.07;;;-5.00;99.90;;;;;;5019796;28;20237;-91
2021/12/28 02:02:16;;;;;;;6.20;3.10;;;-5.00;99.90;;;;;;5008686;28;20203;-91
2021/12/28 02:04:53;;;;;;;4.43;2.97;;;-5.00;99.90;;;;;;4983435;28;20198;-92
2021/12/28 02:07:26;;;;;;;4.67;3.07;;;-5.00;99.90;;;;;;5005117;28;20272;-91
2021/12/28 02:09:59;;;;;;;5.50;2.93;;;-5.00;99.90;;;;;;5006982;28;20220;-91
2021/12/28 02:12:31;;;;;;;5.57;3.07;;;-5.00;99.90;;;;;;4992545;28;20229;-92
2021/12/28 02:15:06;;;;;;;4.67;3.03;;;-5.00;99.90;;;;;;4988524;28;20190;-91
2021/12/28 02:17:39;;;;;;;7.13;3.87;;;-4.90;99.90;;;;;;4979304;28;20259;-92
2021/12/28 02:20:16;;;;;;;4.70;3.40;;;-5.00;99.90;;;;;;4978984;28;20235;-91
2021/12/28 02:22:48;;;;;;;5.30;3.57;;;-5.00;99.90;;;;;;4981378;28;20214;-91
2021/12/28 02:25:21;;;;;;;5.80;3.70;;;-5.00;99.90;;;;;;4979015;28;20206;-91
2021/12/28 02:27:52;;;;;;;5.53;3.60;;;-5.00;99.90;;;;;;4978343;28;20218;-91
2021/12/28 02:30:25;;;;;;;9.10;3.90;;;-5.10;99.90;;;;;;4985840;28;20562;-89
2021/12/28 02:32:58;;;;;;;5.73;3.70;;;-5.00;99.90;;;;;;4982571;28;20222;-91
2021/12/28 02:35:32;;;;;;;5.97;3.43;;;-4.90;99.90;;;;;;4980962;28;20240;-92
2021/12/28 02:38:04;;;;;;;5.33;3.43;;;-5.00;99.90;;;;;;4980427;28;20288;-90
2021/12/28 02:40:37;;;;;;;5.87;4.13;;;-5.00;99.90;;;;;;4980079;28;20261;-92
2021/12/28 02:43:12;;;;;;;5.73;3.23;;;-4.90;99.90;;;;;;4988926;28;20216;-89
2021/12/28 02:45:50;;;;;;;5.87;3.37;;;-4.90;99.90;;;;;;5018230;28;20295;-90
2021/12/28 02:48:21;;;;;;;5.67;3.30;;;-4.90;99.90;;;;;;5017999;28;20293;-90
2021/12/28 02:50:58;;;;;;;5.67;3.80;;;-5.00;99.90;;;;;;5017983;28;20232;-91
2021/12/28 02:53:32;;;;;;;4.73;3.23;;;-5.00;99.90;;;;;;5016719;28;20213;-92
2021/12/28 02:56:04;;;;;;;4.37;3.33;;;-4.90;99.90;;;;;;5019775;28;20288;-90
2021/12/28 02:58:38;;;;;;;7.10;3.87;;;-5.00;99.90;;;;;;5020316;28;20659;-92
2021/12/28 03:01:12;;;;;;;7.40;3.70;;;-4.90;99.90;;;;;;5003349;28;20241;-90
2021/12/28 03:03:45;;;;;;;5.43;3.30;;;-4.80;99.90;;;;;;4984111;28;20651;-90
2021/12/28 03:06:20;;;;;;;5.80;3.80;;;-4.90;99.90;;;;;;4988270;28;20206;-91
2021/12/28 03:08:54;;;;;;;7.53;3.40;;;-4.80;99.90;;;;;;4997746;28;20191;-91
2021/12/28 03:11:26;;;;;;;6.73;3.50;;;-4.90;99.90;;;;;;4997682;28;20222;-90
2021/12/28 03:13:59;;;;;;;7.87;4.10;;;-4.80;99.90;;;;;;4997698;28;20222;-92
2021/12/28 03:16:32;;;;;;;6.67;4.27;;;-4.80;99.90;;;;;;4982533;28;20226;-92
2021/12/28 03:19:05;;;;;;;6.00;4.07;;;-4.80;99.90;;;;;;4989654;28;20298;-92
2021/12/28 03:21:41;;;;;;;8.57;4.10;;;-4.80;99.90;;;;;;4994360;28;20241;-91
2021/12/28 03:24:15;;;;;;;6.60;4.00;;;-4.70;99.90;;;;;;4993733;28;20202;-90
2021/12/28 03:26:47;;;;;;;7.27;3.97;;;-4.80;99.90;;;;;;4985851;28;20225;-90
2021/12/28 03:29:19;;;;;;;8.57;4.73;;;-4.80;99.90;;;;;;4991203;28;20225;-91
2021/12/28 03:31:50;;;;;;;8.27;4.57;;;-4.80;99.90;;;;;;4983410;28;20274;-91
2021/12/28 03:34:21;;;;;;;7.93;4.17;;;-4.80;99.90;;;;;;4980385;28;20229;-92
2021/12/28 03:36:54;;;;;;;9.30;4.10;;;-4.80;99.90;;;;;;4981321;28;20210;-91
2021/12/28 03:39:26;;;;;;;6.10;3.80;;;-4.80;99.90;;;;;;4980405;28;20214;-92
2021/12/28 03:41:57;;;;;;;5.67;3.30;;;-4.90;99.90;;;;;;4981236;28;20667;-92
2021/12/28 03:44:29;;;;;;;6.53;4.23;;;-4.80;99.90;;;;;;4979741;28;20210;-92
2021/12/28 03:47:01;;;;;;;4.63;3.77;;;-4.90;99.90;;;;;;4981097;28;20207;-91
2021/12/28 03:49:34;;;;;;;6.47;4.10;;;-4.80;99.90;;;;;;4984871;28;20227;-91
2021/12/28 03:52:10;;;;;;;5.03;3.40;;;-4.80;99.90;;;;;;4983766;28;20211;-92
2021/12/28 03:54:41;;;;;;;5.83;3.90;;;-4.90;99.90;;;;;;4997116;28;20795;-91
2021/12/28 03:57:12;;;;;;;6.80;4.07;;;-4.90;99.90;;;;;;5001480;28;20257;-90
2021/12/28 03:59:45;;;;;;;7.47;4.20;;;-4.90;99.90;;;;;;5003538;28;20237;-90
2021/12/28 04:02:16;;;;;;;6.23;4.40;;;-4.90;99.90;;;;;;4999763;28;20257;-92
2021/12/28 04:04:48;;;;;;;6.37;4.27;;;-4.90;99.90;;;;;;5003992;28;20245;-91
2021/12/28 04:07:22;;;;;;;8.17;4.43;;;-4.90;99.90;;;;;;5002242;28;20242;-90
2021/12/28 04:10:02;;;;;;;8.20;4.97;;;-4.90;99.90;;;;;;5000360;28;20275;-91
2021/12/28 04:12:34;;;;;;;8.57;4.20;;;-4.90;99.90;;;;;;5009391;28;20206;-89
2021/12/28 04:15:08;;;;;;;7.80;4.90;;;-4.90;99.90;;;;;;5006046;28;20230;-90
2021/12/28 04:17:39;;;;;;;6.47;4.50;;;-4.90;99.90;;;;;;5004079;28;20276;-91
2021/12/28 04:20:13;;;;;;;8.03;4.40;;;-4.90;99.90;;;;;;5001998;28;20528;-91
2021/12/28 04:22:47;;;;;;;6.47;4.03;;;-4.90;99.90;;;;;;5005098;28;20217;-91
2021/12/28 04:25:19;;;;;;;6.13;3.90;;;-4.80;99.90;;;;;;5007285;28;20229;-91
2021/12/28 04:27:51;;;;;;;5.73;3.43;;;-4.80;99.90;;;;;;5003946;28;20662;-89
2021/12/28 04:30:24;;;;;;;5.23;3.30;;;-4.80;99.90;;;;;;5004484;28;20292;-90
2021/12/28 04:32:56;;;;;;;6.67;3.63;;;-4.80;99.90;;;;;;5002784;28;20221;-90
2021/12/28 04:35:28;;;;;;;4.80;3.57;;;-4.80;99.90;;;;;;5001558;28;20240;-90
2021/12/28 04:38:03;;;;;;;7.03;4.37;;;-4.70;99.90;;;;;;4999021;28;20205;-92
2021/12/28 04:40:41;;;;;;;9.10;4.37;;;-4.70;99.90;;;;;;5000839;28;20210;-91
2021/12/28 04:43:13;;;;;;;10.77;4.97;;;-4.70;99.90;;;;;;5003216;28;20542;-91
2021/12/28 04:45:45;;;;;;;15.40;5.03;;;-4.70;99.90;;;;;;5001069;28;20238;-91
2021/12/28 04:48:17;;;;;;;9.70;4.63;;;-4.70;99.90;;;;;;5001265;28;20221;-90
2021/12/28 04:50:49;;;;;;;6.83;3.93;;;-4.70;99.90;;;;;;5000742;28;20271;-90
2021/12/28 04:53:22;;;;;;;9.27;4.03;;;-4.60;99.90;;;;;;5002259;28;20210;-91
2021/12/28 04:55:54;;;;;;;4.53;3.80;;;-4.70;99.90;;;;;;5002280;28;20233;-92
2021/12/28 04:58:26;;;;;;;7.10;5.00;;;-4.70;99.90;;;;;;5003446;28;20207;-90
2021/12/28 05:00:58;;;;;;;5.67;3.60;;;-4.60;99.90;;;;;;5004050;28;20285;-92
2021/12/28 05:03:29;;;;;;;6.97;3.17;;;-4.70;99.90;;;;;;5004400;28;20213;-90
2021/12/28 05:06:00;;;;;;;4.77;3.27;;;-4.60;99.90;;;;;;5003994;28;20229;-91
2021/12/28 05:08:33;;;;;;;6.63;3.97;;;-4.60;99.90;;;;;;5005156;28;20203;-91
2021/12/28 05:11:04;;;;;;;5.63;3.70;;;-4.60;99.90;;;;;;5004150;28;20206;-92
2021/12/28 05:13:36;;;;;;;5.83;2.97;;;-4.70;99.90;;;;;;5012965;28;20216;-91
2021/12/28 05:16:13;;;;;;;6.43;3.40;;;-4.70;99.90;;;;;;5022978;28;20317;-90
2021/12/28 05:18:44;;;;;;;4.13;3.40;;;-4.70;99.90;;;;;;5024323;28;20212;-91
2021/12/28 05:21:16;;;;;;;6.47;3.40;;;-4.70;99.90;;;;;;5023478;28;20229;-91
2021/12/28 05:23:49;;;;;;;4.67;3.53;;;-4.70;99.90;;;;;;5023877;28;20205;-90
2021/12/28 05:26:21;;;;;;;5.70;4.00;;;-4.70;99.90;;;;;;5021562;28;20213;-91
2021/12/28 05:28:53;;;;;;;6.27;3.57;;;-4.60;99.90;;;;;;5025295;28;20309;-91
2021/12/28 05:31:26;;;;;;;5.67;3.57;;;-4.60;99.90;;;;;;5015225;28;20210;-90
2021/12/28 05:33:58;;;;;;;4.53;3.13;;;-4.60;99.90;;;;;;5004422;28;20342;-90
2021/12/28 05:36:29;;;;;;;6.03;3.50;;;-4.70;99.90;;;;;;5002007;28;20233;-91
2021/12/28 05:39:02;;;;;;;4.83;2.70;;;-4.70;99.90;;;;;;5005242;28;20225;-90
2021/12/28 05:41:33;;;;;;;4.07;2.37;;;-4.70;99.90;;;;;;5016205;28;20230;-91
2021/12/28 05:44:04;;;;;;;5.93;3.20;;;-4.70;99.90;;;;;;5023555;28;20248;-91
2021/12/28 05:46:36;;;;;;;5.47;3.07;;;-4.70;99.90;;;;;;5033321;28;20204;-91
2021/12/28 05:49:08;;;;;;;4.40;2.80;;;-4.60;99.90;;;;;;5036915;28;20205;-92
2021/12/28 05:51:38;;;;;;;6.23;3.10;;;-4.50;99.90;;;;;;5032063;28;20209;-92
2021/12/28 05:54:12;;;;;;;6.97;4.00;;;-4.60;99.90;;;;;;5012499;28;20242;-91
2021/12/28 05:56:43;;;;;;;5.30;3.60;;;-4.50;99.90;;;;;;4998869;28;20214;-91
2021/12/28 05:59:14;;;;;;;6.03;3.90;;;-4.50;99.90;;;;;;4999100;28;20244;-91
2021/12/28 06:01:47;;;;;;;5.63;4.07;;;-4.50;99.90;;;;;;4998794;28;20230;-92
2021/12/28 06:04:18;;;;;;;7.00;4.37;;;-4.50;99.90;;;;;;4999310;28;20206;-90
2021/12/28 06:06:49;;;;;;;6.80;3.80;;;-4.50;99.90;;;;;;4999077;28;20224;-90
2021/12/28 06:09:23;;;;;;;5.33;3.90;;;-4.50;99.90;;;;;;4999629;28;20276;-89
2021/12/28 06:11:54;;;;;;;6.73;3.70;;;-4.50;99.90;;;;;;5002020;28;20210;-90
2021/12/28 06:14:25;;;;;;;6.63;3.93;;;-4.50;99.90;;;;;;4998403;28;20271;-92
2021/12/28 06:16:56;;;;;;;8.57;4.20;;;-4.50;99.90;;;;;;4998869;28;20269;-93
2021/12/28 06:19:28;;;;;;;6.57;3.80;;;-4.50;99.90;;;;;;5001629;28;20206;-90
2021/12/28 06:22:00;;;;;;;6.33;3.37;;;-4.50;99.90;;;;;;4995028;28;20317;-91
2021/12/28 06:24:35;;;;;;;5.63;3.50;;;-4.50;99.90;;;;;;4979005;28;20297;-92
2021/12/28 06:27:07;;;;;;;5.77;3.10;;;-4.50;99.90;;;;;;4977452;28;20238;-93
2021/12/28 06:29:39;;;;;;;4.27;3.33;;;-4.40;99.90;;;;;;4978186;28;20203;-92
2021/12/28 06:32:11;;;;;;;5.37;3.37;;;-4.40;99.90;;;;;;4995646;28;20218;-93
2021/12/28 06:34:41;;;;;;;7.33;3.30;;;-4.30;99.90;;;;;;4999348;28;20225;-92
2021/12/28 06:37:13;;;;;;;5.17;3.10;;;-4.30;99.90;;;;;;4997785;28;20554;-92
2021/12/28 06:39:46;;;;;;;4.03;2.83;;;-4.30;99.90;;;;;;4999186;28;20209;-91
2021/12/28 06:42:17;;;;;;;4.57;2.97;;;-4.30;99.90;;;;;;4998648;28;20253;-92
2021/12/28 06:44:48;;;;;;;6.67;3.47;;;-4.30;99.90;;;;;;4669360;28;10000509;-91
2021/12/28 06:47:20;;;;;;;6.83;3.87;;;-4.30;99.90;;;;;;5014962;28;20300;-91
2021/12/28 06:49:51;;;;;;;4.93;3.50;;;-4.30;99.90;;;;;;5014999;28;20636;-92
2021/12/28 06:52:22;;;;;;;6.27;4.00;;;-4.30;99.90;;;;;;5015068;28;20209;-91
2021/12/28 06:54:58;;;;;;;6.77;3.37;;;-4.30;99.90;;;;;;5015271;28;20217;-92
2021/12/28 06:57:30;;;;;;;6.60;3.80;;;-4.30;99.90;;;;;;5015094;28;20642;-91
2021/12/28 07:00:01;;;;;;;6.83;3.50;;;-4.30;99.90;;;;;;5015771;28;20241;-91
2021/12/28 07:02:32;;;;;;;6.07;4.10;;;-4.30;99.90;;;;;;5015418;28;20226;-92
2021/12/28 07:05:04;;;;;;;6.33;3.60;;;-4.20;99.90;;;;;;5016029;28;20212;-92
2021/12/28 07:07:35;;;;;;;5.93;3.53;;;-4.30;99.90;;;;;;5014896;28;20276;-92
2021/12/28 07:10:10;;;;;;;5.63;3.63;;;-4.20;99.90;;;;;;5015177;28;20256;-92
2021/12/28 07:12:43;;;;;;;6.37;3.67;;;-4.30;99.90;;;;;;5015412;28;20228;-92
2021/12/28 07:15:15;;;;;;;6.83;4.43;;;-4.30;99.90;;;;;;5015442;28;20265;-91
2021/12/28 07:17:46;;;;;;;6.23;3.80;;;-4.30;99.90;;;;;;5014015;28;20217;-92
2021/12/28 07:20:18;;;;;;;6.87;4.10;;;-4.30;99.90;;;;;;5015523;28;20243;-92
2021/12/28 07:22:49;;;;;;;4.97;3.50;;;-4.30;99.90;;;;;;5015687;28;20620;-91
2021/12/28 07:25:24;;;;;;;5.67;3.80;;;-4.30;99.90;;;;;;5017610;28;20212;-92
2021/12/28 07:27:56;;;;;;;5.40;3.53;;;-4.20;99.90;;;;;;5016390;28;20220;-92
2021/12/28 07:30:27;;;;;;;4.87;3.40;;;-4.30;99.90;;;;;;5011878;28;20565;-91
2021/12/28 07:32:58;;;;;;;8.53;4.10;;;-4.30;99.90;;;;;;4996515;28;20302;-90
2021/12/28 07:35:32;;;;;;;7.67;3.67;;;-4.20;99.90;;;;;;4996218;28;20210;-91
2021/12/28 07:38:03;;;;;;;7.07;3.93;;;-4.20;99.90;;;;;;4996271;28;20202;-91
2021/12/28 07:40:37;;;;;;;7.27;3.77;;;-4.20;99.90;;;;;;5000546;28;20205;-91
2021/12/28 07:43:09;;;;;;;4.67;2.93;;;-4.20;99.90;;;;;;4999222;28;20340;-91
2021/12/28 07:45:40;;;;;;;5.17;2.80;;;-4.20;99.90;;;;;;5001132;28;20206;-91
2021/12/28 07:48:12;;;;;;;4.53;2.93;;;-4.20;99.90;;;;;;5000013;28;20682;-91
2021/12/28 07:50:43;;;;;;;3.70;2.60;;;-4.20;99.90;;;;;;4999225;28;20256;-90
2021/12/28 07:53:14;;;;;;;5.67;3.50;;;-4.30;99.90;;;;;;5002084;28;20241;-92
2021/12/28 07:55:48;;;;;;;6.97;3.53;;;-4.30;99.90;;;;;;5002289;28;20241;-90
2021/12/28 07:58:20;;;;;;;7.10;3.50;;;-4.30;99.90;;;;;;5019236;28;20296;-90
2021/12/28 08:00:51;;;;;;;5.70;3.57;;;-4.30;99.90;;;;;;5020000;28;20202;-92
2021/12/28 08:03:23;;;;;;;4.60;2.83;;;-4.40;99.90;;;;;;5016050;28;20291;-92
2021/12/28 08:05:56;;;;;;;4.33;2.93;;;-4.40;99.90;;;;;;5015116;28;20266;-90
2021/12/28 08:08:27;;;;;;;5.97;2.73;;;-4.40;99.90;;;;;;5020272;28;20202;-91
2021/12/28 08:11:03;;;;;;;4.20;2.70;;;-4.30;99.90;;;;;;5020298;28;20205;-90
2021/12/28 08:13:37;;;;;;;4.37;2.80;;;-4.30;99.90;;;;;;5029153;28;20296;-90
2021/12/28 08:16:08;;;;;;;4.90;2.93;;;-4.30;99.90;;;;;;5027395;28;20674;-92
2021/12/28 08:18:39;;;;;;;5.07;2.90;;;-4.30;99.90;;;;;;5023994;28;20201;-91
2021/12/28 08:21:13;;;;;;;5.97;3.50;;;-4.30;99.90;;;;;;5024932;28;20202;-90
2021/12/28 08:23:45;;;;;;;4.63;2.90;;;-4.30;99.90;;;;;;5023909;28;20237;-90
2021/12/28 08:26:24;;;;;;;4.53;3.20;;;-4.20;99.90;;;;;;5015983;28;20766;-91
2021/12/28 08:28:55;;;;;;;3.37;2.53;;;-4.20;99.90;;;;;;5004652;28;20240;-91
2021/12/28 08:31:28;;;;;;;6.30;3.07;;;-4.30;99.90;;;;;;5009959;28;20214;-92
2021/12/28 08:34:00;;;;;;;6.30;3.10;;;-4.30;99.90;;;;;;5018051;28;20213;-91
2021/12/28 08:36:31;;;;;;;5.83;3.43;;;-4.30;99.90;;;;;;5015751;28;20625;-91
2021/12/28 08:39:03;;;;;;;4.93;2.70;;;-4.30;99.90;;;;;;5005462;28;20283;-91
2021/12/28 08:41:38;;;;;;;5.13;3.30;;;-4.40;99.90;;;;;;5004465;28;20202;-91
2021/12/28 08:44:09;;;;;;;3.70;2.87;;;-4.40;99.90;;;;;;5002773;28;20297;-91
2021/12/28 08:46:42;;;;;;;4.77;2.93;;;-4.40;99.90;;;;;;5000973;28;20253;-91
2021/12/28 08:49:17;;;;;;;5.03;3.50;;;-4.30;99.90;;;;;;4999939;28;20274;-91
2021/12/28 08:51:49;;;;;;;4.20;2.77;;;-4.40;99.90;;;;;;4999342;28;20261;-89
2021/12/28 08:54:21;;;;;;;6.00;3.57;;;-4.40;99.90;;;;;;5000823;28;20273;-92
2021/12/28 08:56:53;;;;;;;7.37;3.53;;;-4.30;99.90;;;;;;5000385;28;20241;-91
2021/12/28 08:59:25;;;;;;;9.03;4.27;;;-4.30;99.90;;;;;;5000515;28;20271;-92
2021/12/28 09:01:57;;;;;;;6.13;4.10;;;-4.30;99.90;;;;;;5000338;28;20214;-92
2021/12/28 09:04:28;;;;;;;7.17;4.07;;;-4.20;99.90;;;;;;4999724;28;20306;-91
2021/12/28 09:07:01;;;;;;;6.27;3.63;;;-4.30;99.90;;;;;;4992125;28;20222;-90
2021/12/28 09:09:31;;;;;;;5.73;3.23;;;-4.30;99.90;;;;;;4979572;28;20246;-91
2021/12/28 09:12:05;;;;;;;4.10;3.00;;;-4.20;99.90;;;;;;4981791;28;20735;-90
2021/12/28 09:14:37;;;;;;;5.67;2.93;;;-4.30;99.90;;;;;;4981536;28;20236;-92
2021/12/28 09:17:09;;;;;;;5.00;2.73;;;-4.30;99.90;;;;;;4980071;28;20235;-92
2021/12/28 09:19:40;;;;;;;4.47;2.80;;;-4.30;99.90;;;;;;4980429;28;20207;-92
2021/12/28 09:22:11;;;;;;;3.67;2.83;;;-4.30;99.90;;;;;;4980393;28;20203;-92
2021/12/28 09:24:44;;;;;;;5.20;2.90;;;-4.30;99.90;;;;;;4979876;28;20231;-91
2021/12/28 09:27:21;;;;;;;4.37;3.00;;;-4.30;99.90;;;;;;4978792;28;20219;-92
2021/12/28 09:29:53;;;;;;;4.17;2.70;;;-4.20;99.90;;;;;;4978865;28;20571;-92
2021/12/28 09:32:24;;;;;;;5.73;3.50;;;-4.20;99.90;;;;;;4979241;28;20238;-92
2021/12/28 09:34:57;;;;;;;5.10;2.83;;;-4.30;99.90;;;;;;4979200;28;20213;-92
2021/12/28 09:37:28;;;;;;;3.73;2.70;;;-4.20;99.90;;;;;;4983230;28;20218;-90
2021/12/28 09:40:00;;;;;;;5.60;2.90;;;-4.20;99.90;;;;;;4983018;28;20214;-92
2021/12/28 09:42:35;;;;;;;4.60;2.93;;;-4.20;99.90;;;;;;4979998;28;20633;-92
2021/12/28 09:45:08;;;;;;;5.40;3.10;;;-4.10;99.90;;;;;;4977865;28;20260;-92
2021/12/28 09:47:39;;;;;;;5.57;2.53;;;-4.10;99.90;;;;;;4978229;28;20286;-92
2021/12/28 09:50:17;;;;;;;5.93;3.30;;;-4.10;99.90;;;;;;4978761;28;20211;-91
2021/12/28 09:52:51;;;;;;;6.73;3.50;;;-4.00;99.90;;;;;;4978811;28;20211;-92
2021/12/28 09:55:25;;;;;;;5.47;3.40;;;-4.00;99.90;;;;;;4977823;28;20199;-93
2021/12/28 09:58:00;;;;;;;6.87;3.47;;;-4.00;99.90;;;;;;4976799;28;20221;-91
2021/12/28 10:00:31;;;;;;;5.03;3.43;;;-4.00;99.90;;;;;;4977662;28;20214;-91
2021/12/28 10:03:15;;;;;;;4.50;2.77;;;-4.10;99.90;;;;;;4977853;28;20202;-91
2021/12/28 10:05:47;;;;;;;7.00;3.77;;;-4.10;99.90;;;;;;4976797;28;20225;-91
2021/12/28 10:08:27;;;;;;;5.10;2.97;;;-4.10;99.90;;;;;;4976139;28;20257;-92
2021/12/28 10:11:00;;;;;;;7.70;3.60;;;-4.10;99.90;;;;;;4977874;28;20649;-91
2021/12/28 10:13:39;;;;;;;9.30;3.57;;;-4.10;99.90;;;;;;4977101;28;20609;-92
2021/12/28 10:16:11;;;;;;;6.90;3.07;;;-4.10;99.90;;;;;;4977239;28;20207;-92
2021/12/28 10:18:45;;;;;;;5.43;3.00;;;-4.10;99.90;;;;;;4979945;28;20226;-91
2021/12/28 10:21:17;;;;;;;5.23;2.80;;;-4.10;99.90;;;;;;4987026;28;20207;-92
2021/12/28 10:23:48;;;;;;;4.87;2.90;;;-4.10;99.90;;;;;;4998614;28;20271;-91
2021/12/28 10:26:31;;;;;;;4.50;2.73;;;-4.10;99.90;;;;;;4995790;28;20218;-92
2021/12/28 10:29:31;;;;;;;5.17;3.37;;;-4.10;99.90;;;;;;4998212;28;20207;-91
2021/12/28 10:32:18;;;;;;;5.07;3.40;;;-4.00;99.90;;;;;;4995913;28;20238;-92
2021/12/28 10:34:50;;;;;;;5.57;3.00;;;-3.90;99.90;;;;;;4980557;28;20730;-92
2021/12/28 10:37:23;;;;;;;4.77;2.73;;;-4.00;99.90;;;;;;4976710;28;20215;-91
2021/12/28 10:39:56;;;;;;;3.23;2.27;;;-4.00;99.90;;;;;;4979002;28;20211;-91
2021/12/28 10:42:46;;;;;;;4.27;2.67;;;-3.90;99.90;;;;;;4977796;28;20211;-91
2021/12/28 10:45:21;;;;;;;4.40;3.20;;;-3.90;99.90;;;;;;4976643;28;20336;-92
2021/12/28 10:47:55;;;;;;;4.90;3.17;;;-4.00;99.90;;;;;;4977445;28;20270;-93
2021/12/28 10:50:34;;;;;;;4.10;2.80;;;-4.00;99.90;;;;;;4976618;28;20210;-92
2021/12/28 10:53:14;;;;;;;3.30;2.70;;;-4.00;99.90;;;;;;4977161;28;20532;-90
2021/12/28 10:55:47;;;;;;;5.20;2.63;;;-4.10;99.90;;;;;;4977178;28;20254;-91
2021/12/28 10:58:28;;;;;;;4.60;2.83;;;-4.10;99.90;;;;;;4977245;28;20225;-89
2021/12/28 11:01:10;;;;;;;4.63;2.73;;;-4.10;99.90;;;;;;4977788;28;20215;-89
2021/12/28 11:03:44;;;;;;;3.73;2.80;;;-4.10;99.90;;;;;;4977623;28;20210;-89
2021/12/28 11:06:24;;;;;;;4.10;2.70;;;-4.00;99.90;;;;;;4976341;28;20215;-90
2021/12/28 11:08:57;;;;;;;5.80;3.20;;;-4.00;99.90;;;;;;4992881;28;20654;-91
2021/12/28 11:11:30;;;;;;;4.03;2.80;;;-3.90;99.90;;;;;;4995670;28;20220;-92
2021/12/28 11:14:04;;;;;;;4.80;3.00;;;-3.90;99.90;;;;;;4994992;28;20702;-90
2021/12/28 11:16:38;;;;;;;5.00;3.03;;;-3.90;99.90;;;;;;4994925;28;20736;-93
2021/12/28 11:19:11;;;;;;;5.50;2.80;;;-3.80;99.90;;;;;;4994782;28;20236;-93
2021/12/28 11:21:51;;;;;;;4.30;2.63;;;-3.90;99.90;;;;;;4998948;28;20234;-92
2021/12/28 11:24:31;;;;;;;7.00;2.50;;;-3.90;99.90;;;;;;4995259;28;20280;-91
2021/12/28 11:27:05;;;;;;;6.33;3.07;;;-3.90;99.90;;;;;;4994889;28;20289;-92
2021/12/28 11:29:56;;;;;;;4.03;2.50;;;-3.90;99.90;;;;;;4996220;28;20206;-92
2021/12/28 11:32:29;;;;;;;5.87;3.10;;;-3.90;99.90;;;;;;4996485;28;20210;-92
2021/12/28 11:35:01;;;;;;;3.67;2.70;;;-4.00;99.90;;;;;;4995561;28;20296;-92
2021/12/28 11:37:34;;;;;;;5.17;2.83;;;-3.90;99.90;;;;;;4994510;28;20236;-91
2021/12/28 11:40:08;;;;;;;4.23;2.53;;;-3.90;99.90;;;;;;4995465;28;20244;-92
2021/12/28 11:42:40;;;;;;;5.20;3.07;;;-3.90;99.90;;;;;;4994679;28;20297;-91
2021/12/28 11:45:11;;;;;;;6.80;3.07;;;-3.90;99.90;;;;;;4995010;28;20702;-92
2021/12/28 11:47:45;;;;;;;4.37;2.67;;;-3.90;99.90;;;;;;4994641;28;20229;-91
2021/12/28 11:50:17;;;;;;;3.50;2.57;;;-3.90;99.90;;;;;;4994526;28;20257;-91
2021/12/28 11:52:47;;;;;;;3.80;2.80;;;-3.90;99.90;;;;;;4995654;28;20270;-92
2021/12/28 11:55:20;;;;;;;4.93;2.63;;;-3.90;99.90;;;;;;4995363;28;20259;-92
2021/12/28 11:57:54;;;;;;;5.10;2.73;;;-3.80;99.90;;;;;;4994627;28;20229;-90
2021/12/28 12:00:26;;;;;;;4.93;2.80;;;-3.80;99.90;;;;;;4994948;28;20261;-91
2021/12/28 12:03:01;;;;;;;4.17;3.07;;;-3.80;99.90;;;;;;4995451;28;20210;-92
2021/12/28 12:05:33;;;;;;;7.13;2.80;;;-3.90;99.90;;;;;;4994751;28;20603;-91
2021/12/28 12:08:08;;;;;;;4.10;2.53;;;-3.80;99.90;;;;;;4994140;28;20214;-91
2021/12/28 12:10:41;;;;;;;6.63;3.10;;;-3.90;99.90;;;;;;4998487;28;20228;-92
2021/12/28 12:13:21;;;;;;;4.87;2.90;;;-3.80;99.90;;;;;;4997228;28;20203;-92
2021/12/28 12:15:56;;;;;;;6.87;3.10;;;-3.90;99.90;;;;;;4995123;28;20260;-89
2021/12/28 12:18:32;;;;;;;4.73;2.53;;;-3.90;99.90;;;;;;4994051;28;20216;-91
2021/12/28 12:21:07;;;;;;;3.80;2.60;;;-3.90;99.90;;;;;;4994549;28;20210;-91
2021/12/28 12:23:50;;;;;;;3.23;2.50;;;-3.80;99.90;;;;;;4995406;28;20297;-91
2021/12/28 12:26:34;;;;;;;4.47;3.17;;;-3.80;99.90;;;;;;4996181;28;20737;-91
2021/12/28 12:29:20;;;;;;;7.03;3.47;;;-3.80;99.90;;;;;;4998793;28;20233;-92
2021/12/28 12:31:52;;;;;;;3.73;2.60;;;-3.80;99.90;;;;;;4998963;28;20241;-94
2021/12/28 12:34:34;;;;;;;6.47;3.30;;;-3.90;99.90;;;;;;5000841;28;20222;-92
2021/12/28 12:37:16;;;;;;;9.87;2.73;;;-3.80;99.90;;;;;;5001340;28;20233;-92
2021/12/28 12:39:56;;;;;;;5.13;3.10;;;-3.80;99.90;;;;;;5001320;28;20243;-91
2021/12/28 12:42:28;;;;;;;5.47;2.90;;;-3.80;99.90;;;;;;5005126;28;20281;-91
2021/12/28 12:45:00;;;;;;;5.90;2.97;;;-3.80;99.90;;;;;;5010670;28;20273;-91
2021/12/28 12:47:31;;;;;;;4.03;3.03;;;-3.80;99.90;;;;;;5015426;28;20214;-92
2021/12/28 12:50:11;;;;;;;4.27;2.90;;;-3.80;99.90;;;;;;5010685;28;20220;-92
2021/12/28 12:52:43;;;;;;;4.20;2.50;;;-3.70;99.90;;;;;;5008049;28;20217;-91
2021/12/28 12:55:15;;;;;;;4.50;2.83;;;-3.70;99.90;;;;;;5002635;28;20585;-90
2021/12/28 12:57:47;;;;;;;3.93;2.50;;;-3.70;99.90;;;;;;4998373;28;20305;-90
2021/12/28 13:00:21;;;;;;;5.20;2.47;;;-3.80;99.90;;;;;;4999304;28;20352;-91
2021/12/28 13:03:02;;;;;;;4.73;2.47;;;-3.80;99.90;;;;;;4998136;28;20214;-92
2021/12/28 13:05:45;;;;;;;4.83;2.53;;;-3.70;99.90;;;;;;4997252;28;20240;-91
2021/12/28 13:08:16;;;;;;;4.23;2.80;;;-3.70;99.90;;;;;;4996640;28;20213;-91
2021/12/28 13:10:48;;;;;;;4.13;2.33;;;-3.70;99.90;;;;;;4996810;28;20211;-92
2021/12/28 13:13:20;;;;;;;4.70;2.60;;;-3.80;99.90;;;;;;5004964;28;20659;-91
2021/12/28 13:15:52;;;;;;;3.77;2.40;;;-3.80;99.90;;;;;;5017150;28;20224;-91
2021/12/28 13:18:36;;;;;;;4.17;2.27;;;-3.80;99.90;;;;;;5016210;28;20627;-91
2021/12/28 13:21:11;;;;;;;4.00;2.87;;;-3.70;99.90;;;;;;5016993;28;20210;-91
2021/12/28 13:23:42;;;;;;;4.87;2.53;;;-3.70;99.90;;;;;;5017675;28;20232;-91
2021/12/28 13:26:13;;;;;;;4.53;2.80;;;-3.60;99.90;;;;;;5016578;28;20265;-91
2021/12/28 13:28:45;;;;;;;4.63;2.77;;;-3.70;99.90;;;;;;5017449;28;20219;-93
2021/12/28 13:31:23;;;;;;;6.40;2.73;;;-3.80;99.90;;;;;;5017955;28;20233;-92
2021/12/28 13:34:00;;;;;;;8.70;3.10;;;-3.70;99.90;;;;;;5017295;28;20308;-91